Time;durP1;ratioP1;P1;durP2;ratioP2;P2;SDS_P1;SDS_P2;PMS_P1;PMS_P2;Temp;Humidity;BMP_temperature;BMP_pressure;BME280_temperature;BME280_humidity;BME280_pressure;Samples;Min_cycle;Max_cycle;Signal;HPM_P1;HPM_P2
2022/06/30 00:01:38;;;;;;;13.95;10.68;;;;;;;18.59;77.29;100976.19;5068042;28;20032;-71
2022/06/30 00:04:04;;;;;;;12.57;11.00;;;;;;;18.50;77.39;100971.63;5087839;28;20375;-67
2022/06/30 00:06:29;;;;;;;13.70;10.32;;;;;;;18.50;76.24;100968.88;5069084;28;20128;-69
2022/06/30 00:08:55;;;;;;;10.95;9.82;;;;;;;18.50;76.94;100971.63;5066860;28;20159;-71
2022/06/30 00:11:21;;;;;;;14.13;10.07;;;;;;;18.48;76.20;100976.44;5068202;28;20055;-70
2022/06/30 00:13:47;;;;;;;10.98;9.60;;;;;;;18.41;76.90;100973.44;5068201;28;20102;-71
2022/06/30 00:16:13;;;;;;;14.48;10.13;;;;;;;18.42;76.30;100966.94;5067344;28;20111;-71
2022/06/30 00:18:38;;;;;;;12.77;10.27;;;;;;;18.38;76.53;100961.91;5068675;28;20115;-70
2022/06/30 00:21:04;;;;;;;13.15;10.35;;;;;;;18.31;76.58;100965.25;5067114;28;20037;-68
2022/06/30 00:23:30;;;;;;;14.52;10.45;;;;;;;18.27;76.58;100960.22;5067901;28;20506;-71
2022/06/30 00:25:56;;;;;;;14.13;11.40;;;;;;;18.22;76.38;100954.34;5067860;28;20033;-71
2022/06/30 00:28:22;;;;;;;12.95;11.32;;;;;;;18.20;76.17;100959.16;5067539;28;20041;-71
2022/06/30 00:30:48;;;;;;;15.48;12.57;;;;;;;18.10;77.98;100953.72;5067214;28;20381;-70
2022/06/30 00:33:14;;;;;;;16.60;12.85;;;;;;;17.99;77.99;100954.81;5080906;28;20039;-71
2022/06/30 00:35:39;;;;;;;13.68;11.93;;;;;;;17.88;78.51;100948.69;5087333;28;20028;-71
2022/06/30 00:38:05;;;;;;;13.75;11.75;;;;;;;17.89;77.27;100953.16;5087460;28;20039;-70
2022/06/30 00:40:37;;;;;;;16.40;11.63;;;;;;;17.93;76.29;100949.94;5072820;28;20036;-70
2022/06/30 00:43:04;;;;;;;16.67;12.75;;;;;;;17.92;76.75;100950.09;5072348;28;20040;-71
2022/06/30 00:45:29;;;;;;;16.73;12.82;;;;;;;17.94;76.99;100943.41;5071748;28;20280;-71
2022/06/30 00:47:54;;;;;;;13.82;11.27;;;;;;;17.94;76.57;100950.78;5072331;28;20033;-71
2022/06/30 00:50:20;;;;;;;13.48;11.30;;;;;;;17.94;76.43;100946.16;5072195;28;20040;-71
2022/06/30 00:52:52;;;;;;;14.55;11.68;;;;;;;17.94;75.91;100953.53;5072269;28;20036;-71
2022/06/30 00:55:19;;;;;;;14.20;11.25;;;;;;;17.95;75.76;100958.91;5071442;28;20032;-71
2022/06/30 00:57:44;;;;;;;15.43;11.63;;;;;;;17.94;76.56;100956.31;5071562;28;20074;-71
2022/06/30 01:00:12;;;;;;;13.65;12.05;;;;;;;17.94;76.35;100962.66;5070398;28;20034;-71
2022/06/30 01:02:38;;;;;;;13.45;11.55;;;;;;;17.91;76.31;100957.50;5079096;28;20040;-70
2022/06/30 01:05:04;;;;;;;15.00;11.90;;;;;;;17.90;76.63;100950.22;5090964;28;20051;-67
2022/06/30 01:07:30;;;;;;;16.67;10.68;;;;;;;17.90;76.42;100947.47;5092359;28;20269;-71
2022/06/30 01:12:47;;;;;;;12.80;11.50;;;;;;;17.91;77.09;100949.25;5071352;28;20044;-70
2022/06/30 01:15:22;;;;;;;15.65;11.75;;;;;;;17.87;77.73;100947.81;5084473;28;20086;-70
2022/06/30 01:17:49;;;;;;;12.02;10.73;;;;;;;17.85;77.38;100947.94;5071707;28;20039;-70
2022/06/30 01:20:18;;;;;;;12.43;10.90;;;;;;;17.84;77.44;100953.63;5071156;28;20036;-71
2022/06/30 01:22:43;;;;;;;14.63;11.30;;;;;;;17.82;77.42;100952.94;5087190;28;20545;-71
2022/06/30 01:25:10;;;;;;;13.73;11.27;;;;;;;17.81;77.06;100951.16;5071102;28;20032;-71
2022/06/30 01:27:36;;;;;;;13.80;11.48;;;;;;;17.77;77.85;100956.16;5070891;28;20094;-71
2022/06/30 01:30:03;;;;;;;13.40;11.38;;;;;;;17.72;78.26;100960.31;5068118;28;20392;-70
2022/06/30 01:32:29;;;;;;;14.35;11.95;;;;;;;17.66;78.72;100966.44;5077462;28;20395;-71
2022/06/30 01:34:58;;;;;;;14.23;11.93;;;;;;;17.62;78.65;100967.78;5092016;28;20093;-71
2022/06/30 01:37:27;;;;;;;13.02;11.35;;;;;;;17.59;78.15;100966.22;5076322;28;20024;-71
2022/06/30 01:39:53;;;;;;;14.32;11.30;;;;;;;17.58;78.43;100962.59;5071382;28;20127;-70
2022/06/30 01:42:18;;;;;;;14.90;12.02;;;;;;;17.56;78.24;100966.50;5077320;28;20135;-71
2022/06/30 01:44:44;;;;;;;14.25;10.68;;;;;;;17.52;78.10;100967.84;5070218;28;20097;-71
2022/06/30 01:47:09;;;;;;;11.45;10.13;;;;;;;17.50;77.85;100970.75;5070622;28;20067;-71
2022/06/30 01:49:35;;;;;;;16.27;11.25;;;;;;;17.46;77.95;100972.06;5070768;28;20373;-70
2022/06/30 01:52:01;;;;;;;15.23;10.73;;;;;;;17.43;77.86;100964.09;5070580;28;20033;-71
2022/06/30 01:54:26;;;;;;;13.57;12.10;;;;;;;17.36;79.57;100968.50;5071061;28;20090;-71
2022/06/30 01:56:51;;;;;;;17.65;13.45;;;;;;;17.22;80.45;100963.50;5069861;28;20136;-71
2022/06/30 01:59:17;;;;;;;12.38;11.07;;;;;;;17.16;79.63;100967.72;5080748;28;20491;-70
2022/06/30 02:01:42;;;;;;;16.88;12.90;;;;;;;17.12;79.88;100966.28;5071543;28;20106;-71
2022/06/30 02:06:52;;;;;;;19.05;13.60;;;;;;;17.06;80.34;100969.63;5090896;28;20044;-71
2022/06/30 02:09:18;;;;;;;14.20;12.70;;;;;;;17.04;80.10;100969.78;5072256;28;20394;-71
2022/06/30 02:11:43;;;;;;;14.40;12.52;;;;;;;17.02;79.95;100968.19;5070181;28;20037;-71
2022/06/30 02:14:09;;;;;;;17.90;11.55;;;;;;;17.01;79.60;100970.06;5068279;28;20514;-71
2022/06/30 02:16:34;;;;;;;11.98;10.68;;;;;;;17.02;78.78;100976.44;5068875;28;20438;-71
2022/06/30 02:19:00;;;;;;;14.30;10.93;;;;;;;17.02;78.95;100973.69;5070916;28;20024;-71
2022/06/30 02:21:26;;;;;;;15.20;12.30;;;;;;;16.96;79.34;100974.28;5069106;28;20103;-71
2022/06/30 02:23:52;;;;;;;13.77;12.05;;;;;;;16.94;79.45;100976.34;5069665;28;20032;-71
2022/06/30 02:26:18;;;;;;;16.75;11.65;;;;;;;16.92;79.45;100978.34;5069642;28;20041;-71
2022/06/30 02:28:43;;;;;;;15.52;12.48;;;;;;;16.87;80.08;100975.19;5068105;28;20134;-71
2022/06/30 02:31:09;;;;;;;15.93;11.70;;;;;;;16.85;79.92;100980.84;5072829;28;20099;-71
2022/06/30 02:33:35;;;;;;;14.23;11.88;;;;;;;16.83;80.15;100982.84;5090836;28;20090;-71
2022/06/30 02:36:00;;;;;;;15.18;11.90;;;;;;;16.80;80.08;100985.94;5090878;28;20024;-71
2022/06/30 02:38:25;;;;;;;14.20;11.77;;;;;;;16.77;80.24;100986.22;5074580;28;20028;-71
2022/06/30 02:40:51;;;;;;;16.90;12.15;;;;;;;16.70;80.23;100987.78;5069843;28;20139;-71
2022/06/30 02:43:16;;;;;;;17.45;13.70;;;;;;;16.52;82.13;100972.06;5069482;28;20111;-71
2022/06/30 02:45:41;;;;;;;15.98;13.00;;;;;;;16.44;81.24;100984.78;5068396;28;20067;-72
2022/06/30 02:48:07;;;;;;;16.67;12.60;;;;;;;16.44;80.60;100985.63;5069947;28;20068;-71
2022/06/30 02:50:32;;;;;;;14.90;12.15;;;;;;;16.49;79.85;100980.56;5068865;28;20051;-70
2022/06/30 02:52:57;;;;;;;17.50;11.88;;;;;;;16.51;79.58;100977.69;5069745;28;20055;-71
2022/06/30 02:55:23;;;;;;;17.52;12.55;;;;;;;16.48;80.27;100976.09;5068974;28;20491;-71
2022/06/30 02:57:48;;;;;;;14.52;12.05;;;;;;;16.45;80.09;100975.53;5069133;28;20056;-70
2022/06/30 03:00:14;;;;;;;16.60;13.38;;;;;;;16.39;80.38;100968.75;5081619;28;20081;-71
2022/06/30 03:02:40;;;;;;;16.45;13.23;;;;;;;16.36;80.20;100965.41;5077146;28;20470;-70
2022/06/30 03:05:07;;;;;;;18.33;13.23;;;;;;;16.34;80.71;100968.31;5088017;28;20147;-71
2022/06/30 03:07:32;;;;;;;15.13;13.52;;;;;;;16.32;80.56;100973.09;5069824;28;20036;-71
2022/06/30 03:09:57;;;;;;;16.42;14.30;;;;;;;16.27;80.48;100972.63;5069516;28;20538;-71
2022/06/30 03:12:23;;;;;;;15.05;12.50;;;;;;;16.24;80.61;100976.56;5066802;28;20032;-71
2022/06/30 03:14:48;;;;;;;16.85;14.02;;;;;;;16.22;81.13;100974.94;5068201;28;20047;-70
2022/06/30 03:17:14;;;;;;;14.85;13.35;;;;;;;16.20;80.70;100966.00;5068900;28;20037;-71
2022/06/30 03:19:39;;;;;;;16.83;13.40;;;;;;;16.16;81.41;100965.41;5069199;28;20039;-70
2022/06/30 03:22:05;;;;;;;18.30;13.35;;;;;;;16.15;80.53;100962.84;5069247;28;20044;-71
2022/06/30 03:24:30;;;;;;;19.00;13.32;;;;;;;16.08;81.72;100968.00;5068272;28;20035;-71
2022/06/30 03:26:55;;;;;;;19.27;14.32;;;;;;;16.06;81.77;100965.41;5068439;28;20352;-71
2022/06/30 03:29:21;;;;;;;15.40;13.80;;;;;;;16.06;81.25;100964.56;5068561;28;20044;-71
2022/06/30 03:31:46;;;;;;;17.17;13.27;;;;;;;16.05;80.59;100965.56;5067591;28;20480;-71
2022/06/30 03:34:11;;;;;;;17.63;12.70;;;;;;;16.02;81.21;100960.38;5089475;28;20116;-71
2022/06/30 03:36:37;;;;;;;16.15;13.27;;;;;;;16.02;80.87;100955.72;5076333;28;20028;-71
2022/06/30 03:39:02;;;;;;;20.10;12.45;;;;;;;16.03;81.03;100962.94;5084725;28;20036;-71
2022/06/30 03:41:28;;;;;;;16.05;13.75;;;;;;;16.03;80.80;100960.22;5067758;28;20041;-71
2022/06/30 03:43:53;;;;;;;14.85;11.98;;;;;;;16.04;80.30;100963.81;5068018;28;20036;-71
2022/06/30 03:46:19;;;;;;;13.30;11.90;;;;;;;16.04;80.59;100963.81;5067609;28;20040;-70
2022/06/30 03:48:44;;;;;;;14.35;11.98;;;;;;;16.00;80.94;100955.03;5068921;28;20028;-71
2022/06/30 03:51:11;;;;;;;14.10;11.82;;;;;;;16.02;80.34;100954.88;5067211;28;20036;-71
2022/06/30 03:53:37;;;;;;;19.35;11.63;;;;;;;16.00;80.13;100948.69;5068478;28;20044;-71
2022/06/30 03:56:02;;;;;;;14.18;12.25;;;;;;;15.97;80.10;100954.44;5068526;28;20041;-71
2022/06/30 03:58:27;;;;;;;13.23;11.57;;;;;;;15.95;80.68;100940.88;5077393;28;20522;-71
2022/06/30 04:00:53;;;;;;;16.75;12.73;;;;;;;15.98;79.91;100940.56;5065853;28;20498;-71
2022/06/30 04:03:18;;;;;;;15.13;12.55;;;;;;;15.98;80.98;100942.44;5081649;28;20413;-71
2022/06/30 04:05:43;;;;;;;17.23;14.15;;;;;;;15.95;81.00;100938.13;5088578;28;20487;-71
2022/06/30 04:08:09;;;;;;;16.98;13.75;;;;;;;15.98;81.00;100946.06;5087122;28;20090;-71
2022/06/30 04:10:34;;;;;;;18.15;12.35;;;;;;;16.00;80.43;100944.06;5081122;28;20051;-70
2022/06/30 04:13:00;;;;;;;14.65;12.48;;;;;;;16.01;80.62;100947.66;5086813;28;20125;-71
2022/06/30 04:15:27;;;;;;;16.35;13.10;;;;;;;15.99;80.95;100942.31;5067452;28;20121;-70
2022/06/30 04:17:53;;;;;;;16.30;12.18;;;;;;;16.02;79.80;100944.75;5068600;28;20024;-71
2022/06/30 04:20:18;;;;;;;17.52;12.38;;;;;;;16.03;80.40;100945.63;5068443;28;20353;-71
2022/06/30 04:22:49;;;;;;;21.23;12.73;;;;;;;16.05;80.02;100947.22;5068162;28;20391;-71
2022/06/30 04:25:15;;;;;;;13.82;11.77;;;;;;;16.07;79.68;100947.94;5068087;28;20501;-71
2022/06/30 04:27:49;;;;;;;13.35;11.43;;;;;;;16.12;80.38;100942.00;5067704;28;20123;-71
2022/06/30 04:32:37;;;;;;;15.25;11.57;;;;;;;16.14;79.77;100959.22;5065587;28;20506;-70
2022/06/30 04:33:03;;;;;;;22.20;16.67;;;;;;;16.10;82.00;100959.66;5079327;28;20105;-71
2022/06/30 04:35:28;;;;;;;19.90;15.25;;;;;;;16.06;81.44;100973.66;5087486;28;20345;-69
2022/06/30 04:37:58;;;;;;;19.30;15.85;;;;;;;16.13;81.16;100964.84;5066805;28;20047;-71
2022/06/30 04:43:07;;;;;;;23.52;16.85;;;;;;;16.24;80.77;101003.16;5067710;28;20129;-70
2022/06/30 04:45:32;;;;;;;27.38;18.85;;;;;;;16.30;83.25;100978.72;5050333;28;20032;-70
2022/06/30 04:47:58;;;;;;;25.23;19.13;;;;;;;16.35;83.45;100966.44;5080572;28;20039;-70
2022/06/30 04:50:23;;;;;;;19.90;16.58;;;;;;;16.44;80.92;100988.38;5084457;28;20039;-70
2022/06/30 04:52:48;;;;;;;26.88;20.88;;;;;;;16.47;83.88;101000.97;5067862;28;20044;-70
2022/06/30 04:55:14;;;;;;;22.90;19.73;;;;;;;16.45;83.63;100983.75;5068295;28;20040;-70
2022/06/30 04:57:39;;;;;;;22.35;18.95;;;;;;;16.49;83.46;101018.16;5067494;28;20134;-71
2022/06/30 05:00:05;;;;;;;29.27;22.70;;;;;;;16.49;84.90;101008.03;5066329;28;20037;-70
2022/06/30 05:02:30;;;;;;;26.42;20.20;;;;;;;16.53;83.83;101000.38;5074721;28;20039;-70
2022/06/30 05:04:56;;;;;;;27.75;20.83;;;;;;;16.58;83.78;101009.91;5088396;28;20379;-71
2022/06/30 05:07:21;;;;;;;28.25;22.45;;;;;;;16.63;84.32;100994.88;5088410;28;20360;-70
2022/06/30 05:09:47;;;;;;;29.08;20.15;;;;;;;16.70;83.54;100996.03;5074491;28;20056;-70
2022/06/30 05:12:12;;;;;;;23.10;19.17;;;;;;;16.74;82.72;101009.38;5080324;28;20032;-71
2022/06/30 05:14:37;;;;;;;29.75;22.13;;;;;;;16.77;82.98;100999.94;5074021;28;20045;-71
2022/06/30 05:17:04;;;;;;;28.55;22.25;;;;;;;16.83;83.24;100996.59;5067350;28;20036;-71
2022/06/30 05:19:29;;;;;;;22.55;19.40;;;;;;;16.87;82.20;100991.69;5068638;28;20142;-70
2022/06/30 05:21:54;;;;;;;26.05;21.50;;;;;;;16.91;83.02;100998.63;5081837;28;20558;-71
2022/06/30 05:27:04;;;;;;;25.42;21.85;;;;;;;17.01;82.54;101003.06;5070855;28;20044;-70
2022/06/30 05:29:29;;;;;;;26.92;20.73;;;;;;;17.08;82.62;101001.47;5071523;28;20116;-71
2022/06/30 05:31:55;;;;;;;27.15;22.35;;;;;;;17.15;82.38;101012.72;5071898;28;20535;-70
2022/06/30 05:34:20;;;;;;;31.33;23.38;;;;;;;17.18;83.10;100998.69;5090358;28;20433;-70
2022/06/30 05:36:45;;;;;;;26.92;22.83;;;;;;;17.25;81.91;101016.31;5091654;28;20419;-70
2022/06/30 05:39:11;;;;;;;24.98;21.52;;;;;;;17.35;81.31;100997.03;5091502;28;20158;-70
2022/06/30 05:41:37;;;;;;;25.40;21.23;;;;;;;17.45;81.07;101010.75;5071576;28;20066;-70
2022/06/30 05:44:02;;;;;;;29.10;23.70;;;;;;;17.46;81.93;101016.06;5071358;28;20040;-71
2022/06/30 05:46:28;;;;;;;30.55;23.27;;;;;;;17.44;82.13;101008.97;5070345;28;20515;-70
2022/06/30 05:48:53;;;;;;;27.42;20.75;;;;;;;17.47;80.36;101003.19;5071293;28;20047;-70
2022/06/30 05:51:18;;;;;;;30.95;21.30;;;;;;;17.50;81.38;101006.50;5082096;28;20048;-71
2022/06/30 05:53:44;;;;;;;28.33;22.48;;;;;;;17.50;82.40;101009.25;5091372;28;20104;-71
2022/06/30 05:56:09;;;;;;;30.70;22.55;;;;;;;17.47;81.44;101012.31;5086172;28;20459;-70
2022/06/30 05:58:35;;;;;;;27.80;19.40;;;;;;;17.46;80.73;101015.22;5070454;28;20379;-70
2022/06/30 06:01:00;;;;;;;26.52;18.80;;;;;;;17.44;80.95;101014.47;5070501;28;20522;-71
2022/06/30 06:03:25;;;;;;;25.98;18.42;;;;;;;17.47;80.72;101017.81;5084901;28;20062;-70
2022/06/30 06:05:51;;;;;;;22.67;17.63;;;;;;;17.50;80.38;101014.75;5080353;28;20538;-71
2022/06/30 06:08:16;;;;;;;26.73;17.88;;;;;;;17.50;80.67;101011.16;5070878;28;20047;-71
2022/06/30 06:10:41;;;;;;;22.48;17.33;;;;;;;17.51;80.08;101008.22;5070494;28;20108;-70
2022/06/30 06:13:09;;;;;;;28.95;17.92;;;;;;;17.51;81.21;101010.97;5068858;28;20068;-70
2022/06/30 06:15:35;;;;;;;23.85;17.38;;;;;;;17.56;79.99;101016.91;5069650;28;20425;-70
2022/06/30 06:18:01;;;;;;;24.90;17.92;;;;;;;17.62;80.31;101020.06;5071185;28;20074;-71
2022/06/30 06:20:26;;;;;;;24.58;16.48;;;;;;;17.66;80.76;101027.84;5070707;28;20050;-70
2022/06/30 06:22:52;;;;;;;21.92;15.95;;;;;;;17.70;80.06;101023.78;5070716;28;20036;-71
2022/06/30 06:25:17;;;;;;;22.88;15.13;;;;;;;17.79;79.32;101022.88;5069841;28;20032;-71
2022/06/30 06:29:05;;;;;;;24.70;17.88;;;;;;;17.79;81.02;101025.66;5069705;28;20036;-71
2022/06/30 06:30:29;;;;;;;23.50;15.35;;;;;;;17.77;81.23;101027.69;5070150;28;20105;-71
2022/06/30 06:32:54;;;;;;;23.60;15.02;;;;;;;17.83;80.09;101026.22;5079983;28;20075;-71
2022/06/30 06:35:19;;;;;;;21.63;14.93;;;;;;;17.87;80.02;101029.53;5090765;28;20047;-71
2022/06/30 06:37:45;;;;;;;20.33;14.75;;;;;;;17.93;79.45;101039.91;5090373;28;20027;-71
2022/06/30 06:40:11;;;;;;;19.35;12.85;;;;;;;17.97;79.72;101033.09;5084757;28;20048;-71
2022/06/30 06:42:36;;;;;;;18.10;14.60;;;;;;;18.00;80.16;101033.66;5068576;28;20143;-71
2022/06/30 06:45:03;;;;;;;19.65;13.25;;;;;;;18.06;80.58;101041.28;5067394;28;20095;-69
2022/06/30 06:47:29;;;;;;;17.83;12.52;;;;;;;18.16;79.53;101046.72;5085993;28;20039;-71
2022/06/30 06:49:54;;;;;;;17.65;12.27;;;;;;;18.16;78.31;101040.34;5070172;28;20487;-70
2022/06/30 06:52:19;;;;;;;18.08;11.20;;;;;;;18.22;79.19;101045.22;5072538;28;20507;-71
2022/06/30 06:54:45;;;;;;;20.95;11.73;;;;;;;18.22;79.36;101046.09;5068004;28;20044;-72
2022/06/30 06:57:10;;;;;;;18.20;12.00;;;;;;;18.26;80.29;101050.25;5069295;28;20417;-71
2022/06/30 06:59:37;;;;;;;17.75;11.52;;;;;;;18.33;79.82;101053.28;5069192;28;20534;-72
2022/06/30 07:02:03;;;;;;;15.75;11.07;;;;;;;18.38;80.61;101050.91;5071766;28;20570;-71
2022/06/30 07:04:29;;;;;;;18.13;10.52;;;;;;;18.38;80.25;101053.66;5072052;28;20147;-70
2022/06/30 07:06:54;;;;;;;14.10;9.98;;;;;;;18.43;79.82;101054.06;5090049;28;20038;-71
2022/06/30 07:09:19;;;;;;;16.02;9.70;;;;;;;18.49;79.27;101060.81;5075617;28;20544;-71
2022/06/30 07:11:44;;;;;;;15.38;8.95;;;;;;;18.55;79.47;101069.31;5067600;28;20416;-72
2022/06/30 07:14:10;;;;;;;12.75;9.40;;;;;;;18.61;79.06;101068.72;5069179;28;20097;-72
2022/06/30 07:16:35;;;;;;;13.95;8.57;;;;;;;18.73;79.68;101076.75;5068900;28;20460;-71
2022/06/30 07:19:01;;;;;;;14.82;9.27;;;;;;;18.82;79.15;101084.06;5070067;28;20037;-72
2022/06/30 07:21:26;;;;;;;15.95;8.32;;;;;;;18.84;77.80;101079.28;5070963;28;20566;-72
2022/06/30 07:23:51;;;;;;;17.88;9.18;;;;;;;18.86;77.54;101085.50;5088373;28;20024;-71
2022/06/30 07:26:17;;;;;;;23.98;9.05;;;;;;;18.90;78.24;101086.03;5086761;28;20063;-71
2022/06/30 07:28:42;;;;;;;13.77;8.02;;;;;;;18.95;77.33;101087.28;5083426;28;20029;-70
2022/06/30 07:31:08;;;;;;;13.52;8.18;;;;;;;19.03;77.93;101090.13;5077275;28;20536;-71
2022/06/30 07:33:34;;;;;;;18.50;9.02;;;;;;;19.11;77.69;101095.69;5090158;28;20066;-71
2022/06/30 07:35:59;;;;;;;14.30;8.30;;;;;;;19.16;78.10;101089.69;5089997;28;20451;-71
2022/06/30 07:38:25;;;;;;;17.75;8.00;;;;;;;19.22;77.50;101080.78;5089384;28;20040;-71
2022/06/30 07:40:50;;;;;;;14.30;7.53;;;;;;;19.26;76.68;101073.91;5068663;28;20506;-71
2022/06/30 07:43:15;;;;;;;13.30;7.53;;;;;;;19.32;76.74;101064.97;5068556;28;20420;-71
2022/06/30 07:45:41;;;;;;;16.38;8.00;;;;;;;19.39;78.11;101076.22;5067882;28;20024;-71
2022/06/30 07:48:06;;;;;;;11.88;7.43;;;;;;;19.48;77.38;101069.72;5068487;28;20429;-70
2022/06/30 07:50:31;;;;;;;14.32;7.05;;;;;;;19.60;77.09;101078.63;5069514;28;20119;-72
2022/06/30 07:52:57;;;;;;;12.93;6.97;;;;;;;19.66;74.07;101080.72;5067658;28;20123;-72
2022/06/30 07:55:22;;;;;;;14.73;6.93;;;;;;;19.76;76.43;101088.88;5075309;28;20031;-70
2022/06/30 07:57:48;;;;;;;14.18;7.22;;;;;;;19.84;73.35;101091.69;5070637;28;20413;-71
2022/06/30 08:00:15;;;;;;;10.68;6.55;;;;;;;19.94;75.33;101084.13;5067329;28;20031;-71
2022/06/30 08:02:41;;;;;;;10.57;6.53;;;;;;;20.08;75.53;101090.94;5075036;28;20058;-71
2022/06/30 08:05:08;;;;;;;14.25;6.90;;;;;;;20.18;74.37;101088.88;5088171;28;20048;-69
2022/06/30 08:07:34;;;;;;;15.70;6.60;;;;;;;20.38;73.43;101087.56;5069471;28;20230;-71
2022/06/30 08:10:01;;;;;;;11.45;6.07;;;;;;;20.70;71.62;101076.75;5069163;28;20065;-71
2022/06/30 08:12:26;;;;;;;8.23;5.00;;;;;;;21.21;71.36;101080.22;5068660;28;20119;-71
2022/06/30 08:14:52;;;;;;;8.90;5.15;;;;;;;21.86;70.44;101080.94;5067487;28;20082;-70
2022/06/30 08:17:18;;;;;;;10.30;5.10;;;;;;;22.31;66.92;101081.28;5068392;28;20078;-70
2022/06/30 08:19:43;;;;;;;11.45;4.90;;;;;;;22.75;64.87;101073.16;5068380;28;20056;-71
2022/06/30 08:22:08;;;;;;;17.10;4.82;;;;;;;23.36;64.88;101074.06;5068565;28;20040;-70
2022/06/30 08:24:34;;;;;;;8.52;4.45;;;;;;;23.69;61.28;101079.31;5068929;28;20448;-70
2022/06/30 08:27:02;;;;;;;12.55;4.80;;;;;;;24.16;60.78;101078.00;5067870;28;20454;-71
2022/06/30 08:29:29;;;;;;;12.02;4.70;;;;;;;24.31;58.42;101077.97;5068216;28;20059;-71
2022/06/30 08:31:54;;;;;;;7.97;4.15;;;;;;;24.84;58.22;101085.00;5068238;28;20032;-70
2022/06/30 08:34:19;;;;;;;9.02;4.18;;;;;;;25.06;56.89;101091.44;5088731;28;20108;-71
2022/06/30 08:36:45;;;;;;;12.70;4.05;;;;;;;25.06;56.67;101094.22;5069417;28;20063;-71
2022/06/30 08:42:02;;;;;;;10.25;4.85;;;;;;;25.29;55.26;101091.25;5067963;28;20166;-72
2022/06/30 08:42:02;;;;;;;10.70;3.47;;;;;;;25.81;56.23;101080.69;5068045;28;20455;-71
2022/06/30 08:44:32;;;;;;;8.68;3.47;;;;;;;26.02;54.57;101083.41;5068008;28;20044;-71
2022/06/30 08:46:58;;;;;;;8.18;3.60;;;;;;;26.08;54.71;101085.34;5067802;28;20498;-71
2022/06/30 08:49:23;;;;;;;12.35;3.83;;;;;;;26.34;54.58;101084.59;5067182;28;20036;-69
2022/06/30 08:51:52;;;;;;;8.60;3.60;;;;;;;26.68;52.26;101089.25;5067925;28;20079;-72
2022/06/30 08:54:19;;;;;;;7.97;4.00;;;;;;;26.75;51.50;101089.25;5068537;28;20070;-70
2022/06/30 08:56:46;;;;;;;10.18;4.13;;;;;;;26.74;51.27;101084.75;5067469;28;20040;-71
2022/06/30 08:59:11;;;;;;;6.97;3.58;;;;;;;27.07;51.40;101082.00;5068410;28;20502;-70
2022/06/30 09:01:37;;;;;;;9.18;4.47;;;;;;;26.73;47.61;101084.97;5072031;28;20127;-71
2022/06/30 09:04:03;;;;;;;6.95;3.80;;;;;;;26.57;53.37;101087.06;5091195;28;20115;-71
2022/06/30 09:06:28;;;;;;;8.80;4.57;;;;;;;26.52;50.92;101086.81;5092882;28;20082;-71
2022/06/30 09:08:54;;;;;;;7.05;3.92;;;;;;;26.77;51.81;101095.50;5092215;28;20181;-71
2022/06/30 09:11:19;;;;;;;9.63;3.90;;;;;;;27.00;49.72;101088.63;5073866;28;20051;-71
2022/06/30 09:13:50;;;;;;;7.85;3.42;;;;;;;27.15;51.64;101092.13;5071189;28;20502;-71
2022/06/30 09:16:17;;;;;;;8.05;3.97;;;;;;;27.27;50.50;101096.00;5071004;28;20067;-71
2022/06/30 09:18:44;;;;;;;6.35;3.50;;;;;;;27.67;50.42;101085.66;5071847;28;20025;-71
2022/06/30 09:21:17;;;;;;;10.70;4.70;;;;;;;27.39;48.51;101085.03;5071602;28;20509;-70
2022/06/30 09:23:45;;;;;;;7.13;3.58;;;;;;;27.05;49.13;101083.31;5071739;28;20048;-71
2022/06/30 09:26:19;;;;;;;6.30;3.35;;;;;;;27.00;51.86;101094.22;5070382;28;20127;-71
2022/06/30 09:28:53;;;;;;;8.70;3.53;;;;;;;27.50;51.32;101095.56;5071421;28;20047;-70
2022/06/30 09:31:34;;;;;;;7.05;3.22;;;;;;;27.65;51.81;101086.94;5070846;28;20028;-71
2022/06/30 09:34:32;;;;;;;8.05;3.35;;;;;;;27.95;52.36;101098.53;5090740;28;20048;-70
2022/06/30 09:36:57;;;;;;;11.23;4.20;;;;;;;28.28;48.33;101095.59;5046728;28;20445;-71
2022/06/30 09:39:23;;;;;;;7.10;3.85;;;;;;;28.42;46.32;101102.03;5087804;28;20127;-71
2022/06/30 09:41:50;;;;;;;8.20;3.90;;;;;;;28.53;46.82;101101.31;5070828;28;20507;-70
2022/06/30 09:44:15;;;;;;;11.20;4.57;;;;;;;28.48;46.41;101090.78;5070651;28;20700;-70
2022/06/30 09:46:54;;;;;;;10.73;4.13;;;;;;;28.45;45.25;101096.00;5070293;28;20036;-71
2022/06/30 09:49:32;;;;;;;12.60;3.83;;;;;;;28.60;47.53;101095.69;5086887;28;20298;-70
2022/06/30 09:51:59;;;;;;;10.05;3.67;;;;;;;28.64;45.47;101099.78;5070992;28;20361;-71
2022/06/30 09:54:25;;;;;;;7.18;3.38;;;;;;;28.51;47.20;101097.91;5071367;28;20528;-71
2022/06/30 09:57:06;;;;;;;7.20;3.28;;;;;;;28.72;47.90;101102.28;5070697;28;20403;-71
2022/06/30 09:59:32;;;;;;;6.35;3.80;;;;;;;29.05;46.20;101093.72;5069899;28;20086;-70
2022/06/30 10:01:59;;;;;;;9.50;4.68;;;;;;;28.82;42.38;101099.00;5072663;28;20033;-71
2022/06/30 10:04:25;;;;;;;6.30;3.53;;;;;;;28.43;45.76;101098.16;5090923;28;20048;-70
2022/06/30 10:06:52;;;;;;;8.63;3.25;;;;;;;28.78;46.82;101100.56;5091218;28;20044;-71
2022/06/30 10:09:18;;;;;;;8.35;3.42;;;;;;;29.27;44.49;101099.78;5081060;28;20391;-71
2022/06/30 10:11:45;;;;;;;6.63;3.28;;;;;;;29.21;45.25;101107.16;5069532;28;20024;-71
2022/06/30 10:14:11;;;;;;;10.82;3.75;;;;;;;29.00;44.64;101107.53;5069900;28;20024;-71
2022/06/30 10:16:40;;;;;;;9.07;3.92;;;;;;;28.42;43.19;101104.84;5069612;28;20047;-70
2022/06/30 10:19:08;;;;;;;7.50;3.65;;;;;;;28.22;45.94;101114.13;5070533;28;20036;-70
2022/06/30 10:21:36;;;;;;;10.02;3.67;;;;;;;28.29;46.95;101108.50;5069547;28;20040;-67
2022/06/30 10:24:01;;;;;;;9.25;3.95;;;;;;;28.53;44.94;101114.47;5070431;28;20541;-71
2022/06/30 10:29:10;;;;;;;9.13;3.78;;;;;;;28.64;44.76;101092.22;5070100;28;20359;-73
2022/06/30 10:32:04;;;;;;;11.18;3.33;;;;;;;28.83;46.08;101083.94;5069589;28;20120;-71
2022/06/30 10:34:38;;;;;;;8.00;3.20;;;;;;;29.02;44.95;101090.50;5086528;28;20046;-70
2022/06/30 10:37:10;;;;;;;8.05;3.60;;;;;;;28.70;42.06;101096.06;5068501;28;20112;-70
2022/06/30 10:39:50;;;;;;;7.40;3.15;;;;;;;27.87;43.64;101091.22;5068761;28;20399;-70
2022/06/30 10:42:42;;;;;;;6.40;3.10;;;;;;;27.94;47.51;101097.66;5070276;28;20376;-71
2022/06/30 10:45:25;;;;;;;8.32;2.63;;;;;;;28.43;46.71;101096.19;5068193;28;20035;-68
2022/06/30 10:47:57;;;;;;;7.80;3.60;;;;;;;28.73;45.85;101095.63;5070176;28;20490;-71
2022/06/30 10:50:40;;;;;;;6.88;3.28;;;;;;;28.77;44.28;101098.81;5070546;28;20491;-70
2022/06/30 10:53:13;;;;;;;7.53;2.78;;;;;;;29.21;47.36;101084.72;5070269;28;20435;-71
2022/06/30 10:55:54;;;;;;;7.32;2.90;;;;;;;29.83;45.10;101095.19;5069754;28;20063;-72
2022/06/30 10:58:21;;;;;;;6.33;2.83;;;;;;;29.79;43.04;101083.56;5069523;28;20463;-71
2022/06/30 11:01:00;;;;;;;7.60;2.80;;;;;;;29.69;44.01;101083.25;5067314;28;20294;-70
2022/06/30 11:03:34;;;;;;;4.55;2.47;;;;;;;29.47;41.69;101079.97;5083893;28;20032;-72
2022/06/30 11:06:12;;;;;;;7.72;2.72;;;;;;;29.41;43.10;101086.50;5090325;28;20142;-71
2022/06/30 11:11:36;;;;;;;4.53;2.20;;;;;;;29.46;43.83;101097.88;5056085;28;20545;-71
2022/06/30 11:14:01;;;;;;;5.07;2.42;;;;;;;29.39;44.34;101099.91;5069419;28;20040;-71
2022/06/30 11:16:27;;;;;;;4.65;2.67;;;;;;;29.16;44.44;101094.91;5068566;28;20029;-71
2022/06/30 11:18:52;;;;;;;6.82;2.33;;;;;;;29.24;44.12;101089.03;5069596;28;20096;-71
2022/06/30 11:21:18;;;;;;;8.20;2.30;;;;;;;29.42;41.91;101086.25;5069164;28;20040;-71
2022/06/30 11:23:48;;;;;;;5.30;2.60;;;;;;;29.45;42.30;101083.00;5068366;28;20480;-71
2022/06/30 11:29:10;;;;;;;8.38;2.30;;;;;;;29.47;44.30;101077.16;5069166;28;20052;-70
2022/06/30 11:31:38;;;;;;;5.32;2.78;;;;;;;29.35;42.36;101074.25;5068997;28;20047;-71
2022/06/30 11:34:03;;;;;;;5.75;2.70;;;;;;;29.21;41.51;101070.72;5088540;28;20032;-69